Strona główna
METAR-TAF:

METAR-TAF

Lotnisko :

Port lotniczy Siegen

Siegen, Niemcy

Szerokość geograficzna: 50-42-28N, Długość geograficzna: 008-04-59E, wysokość: 602 m

Aktualna obserwacja pogody

Raport powstał 9 godziny i 29 minut temu, godzina 18:50 UTC
Wiatr 14 kt od południe
Temperatura -1°C
Wilgotność 93%
Ciśnienie 1019 hPa
Widzialność 10 km lub więcej
Mało chmury na wysokości 400 ft

METAR: EDGS 101850Z 18014KT 9999 FEW004 M01/M02 Q1019

czas: 05:19 (04:19 UTC)

Prognoza

Raport powstał 11 godziny i 19 minut temu, godzina 17:00 UTC
Prognoza ważna od 10 godzina 18 UTC do 11 godzina 03 UTC
Wiatr 11 kt od południe
Widzialność 10 km lub więcej
Mało chmury na wysokości 2000 ft
Stopniowe zmiany
od 10 godzina 20 UTC do 10 godzina 23 UTC
Wiatr 15 kt od południe w porywach dochodzący do 25 kt
Przejściowo
od 10 godzina 21 UTC do 11 godzina 03 UTC
Widzialność: 2500 m
Przerywane chmury na wysokości 700 ft
zamglenie

TAF: EDGS 101700Z 1018/1103 18011KT 9999 FEW020 BECMG 1020/1023 17015G25KT TEMPO 1021/1103 2500 BR BKN007

Obserwacja i prognoza pogody dla ponad 4000 lotnisk (raport METAR i TAF).

Dostępne stacje oznaczono żółtymi i czerwonymi punktami na mapie.

Najedź kursorem aby zobaczyć nazwę stacji.

Kliknij aby zobaczyć obserwacje i prognozy pogody.

Aby zmienić mapę: kliknij na zielony przycisk z czarnym krzyżykiem, aby powiększyć; na zielony przycisk z myślnikiem, aby pomniejszyć; na zielone strzałki, aby przejść do map sąsiednich.


METAR-TAF: